Time;durP1;ratioP1;P1;durP2;ratioP2;P2;SDS_P1;SDS_P2;PMS_P1;PMS_P2;Temp;Humidity;BMP_temperature;BMP_pressure;BME280_temperature;BME280_humidity;BME280_pressure;Samples;Min_cycle;Max_cycle;Signal;HPM_P1;HPM_P2
2022/09/19 00:01:26;;;;;;;1.73;1.00;;;11.00;99.90;;;;;;4981240;28;20599;-86
2022/09/19 00:04:03;;;;;;;1.00;0.80;;;11.00;99.90;;;;;;4980208;28;20178;-86
2022/09/19 00:06:31;;;;;;;1.63;1.10;;;11.00;99.90;;;;;;4994293;28;20191;-86
2022/09/19 00:08:58;;;;;;;1.10;0.90;;;11.00;99.90;;;;;;4996203;28;20188;-86
2022/09/19 00:11:25;;;;;;;1.63;0.83;;;11.00;99.90;;;;;;5015116;28;20238;-86
2022/09/19 00:13:53;;;;;;;3.10;1.00;;;11.00;99.90;;;;;;4997889;28;20241;-86
2022/09/19 00:16:21;;;;;;;0.97;0.80;;;11.10;99.90;;;;;;4999168;28;20230;-86
2022/09/19 00:18:49;;;;;;;1.13;0.80;;;10.90;99.90;;;;;;4997868;28;20217;-86
2022/09/19 00:21:23;;;;;;;0.97;0.80;;;10.80;99.90;;;;;;5015407;28;20214;-86
2022/09/19 00:26:35;;;;;;;0.93;0.60;;;10.80;99.90;;;;;;5000845;28;20267;-86
2022/09/19 00:29:02;;;;;;;0.50;0.50;;;10.70;99.90;;;;;;4990401;28;20189;-85
2022/09/19 00:31:28;;;;;;;0.80;0.50;;;10.70;99.90;;;;;;4999297;28;20187;-86
2022/09/19 00:33:55;;;;;;;0.60;0.50;;;10.60;99.90;;;;;;4998735;28;20212;-86
2022/09/19 00:36:21;;;;;;;0.50;0.50;;;10.70;99.90;;;;;;5002182;28;20203;-86
2022/09/19 00:38:48;;;;;;;1.47;0.50;;;10.60;99.90;;;;;;4981413;28;20279;-86
2022/09/19 00:41:20;;;;;;;0.73;0.53;;;10.70;99.90;;;;;;4999851;28;20175;-86
2022/09/19 00:44:05;;;;;;;1.00;0.70;;;10.60;99.90;;;;;;4998884;28;20182;-86
2022/09/19 00:46:33;;;;;;;1.00;0.60;;;10.60;99.90;;;;;;4996701;28;20234;-86
2022/09/19 00:49:11;;;;;;;0.40;0.40;;;10.60;99.90;;;;;;5032685;28;20179;-86
2022/09/19 00:51:47;;;;;;;1.47;0.70;;;10.60;99.90;;;;;;5025031;28;20274;-86
2022/09/19 00:54:17;;;;;;;0.60;0.60;;;10.60;99.90;;;;;;4986807;28;20194;-86
2022/09/19 00:56:47;;;;;;;0.83;0.60;;;10.60;99.90;;;;;;4984807;28;20184;-86
2022/09/19 00:59:14;;;;;;;0.93;0.50;;;10.60;99.90;;;;;;4998143;28;20661;-86
2022/09/19 01:01:41;;;;;;;0.50;0.50;;;10.60;99.90;;;;;;4980060;28;20210;-86
2022/09/19 01:04:21;;;;;;;0.60;0.60;;;10.60;99.90;;;;;;5013161;28;20723;-86
2022/09/19 01:07:14;;;;;;;0.93;0.67;;;10.60;99.90;;;;;;5009474;28;20183;-86
2022/09/19 01:09:49;;;;;;;0.70;0.70;;;10.60;99.90;;;;;;5002967;28;20237;-86
2022/09/19 01:12:37;;;;;;;1.27;0.57;;;10.60;99.90;;;;;;4987485;28;20185;-86
2022/09/19 01:15:19;;;;;;;0.50;0.50;;;10.60;99.90;;;;;;5004506;28;20246;-86
2022/09/19 01:17:54;;;;;;;3.00;0.50;;;10.60;99.90;;;;;;4986024;28;20274;-86
2022/09/19 01:20:39;;;;;;;0.97;0.40;;;10.60;99.90;;;;;;4997026;28;20216;-86
2022/09/19 01:23:20;;;;;;;0.90;0.50;;;10.50;99.90;;;;;;5014804;28;20179;-86
2022/09/19 01:25:58;;;;;;;0.40;0.40;;;10.50;99.90;;;;;;4994549;28;20211;-86
2022/09/19 01:28:34;;;;;;;0.40;0.40;;;10.40;99.90;;;;;;4978590;28;20187;-86
2022/09/19 01:31:18;;;;;;;0.50;0.50;;;10.40;99.90;;;;;;4988585;28;20256;-86
2022/09/19 01:34:25;;;;;;;0.57;0.50;;;10.40;99.90;;;;;;4988555;28;20211;-86
2022/09/19 01:37:02;;;;;;;0.50;0.50;;;10.40;99.90;;;;;;4918702;29;20212;-86
2022/09/19 01:39:31;;;;;;;0.40;0.40;;;10.40;99.90;;;;;;4973867;28;20230;-86
2022/09/19 01:42:00;;;;;;;0.40;0.40;;;10.40;99.90;;;;;;4995848;28;20182;-86
2022/09/19 01:44:28;;;;;;;0.40;0.40;;;10.30;99.90;;;;;;4998223;28;20195;-86
2022/09/19 01:47:23;;;;;;;0.50;0.50;;;10.20;99.90;;;;;;5009989;28;20194;-86
2022/09/19 01:50:00;;;;;;;0.40;0.40;;;10.10;99.90;;;;;;5008808;28;20183;-86
2022/09/19 01:52:48;;;;;;;0.33;0.33;;;10.10;99.90;;;;;;5011788;28;20205;-86
2022/09/19 01:55:26;;;;;;;1.80;0.57;;;9.90;99.90;;;;;;4998579;28;20198;-86
2022/09/19 01:58:33;;;;;;;0.53;0.53;;;9.80;99.90;;;;;;4994394;28;20662;-86
2022/09/19 02:01:26;;;;;;;0.40;0.40;;;9.80;99.90;;;;;;4997745;28;20179;-86
2022/09/19 02:04:14;;;;;;;0.53;0.50;;;9.70;99.90;;;;;;5005816;28;20182;-86
2022/09/19 02:06:58;;;;;;;1.03;0.50;;;9.60;99.90;;;;;;4985926;28;20248;-87
2022/09/19 02:09:42;;;;;;;0.60;0.50;;;9.50;99.90;;;;;;4999089;28;20193;-85
2022/09/19 02:12:12;;;;;;;0.40;0.40;;;9.50;99.90;;;;;;5010406;28;20242;-86
2022/09/19 02:14:41;;;;;;;0.80;0.80;;;9.40;99.90;;;;;;4994610;28;20557;-86
2022/09/19 02:17:13;;;;;;;0.50;0.50;;;9.40;99.90;;;;;;4996844;28;20186;-86
2022/09/19 02:19:43;;;;;;;0.60;0.60;;;9.30;99.90;;;;;;4983650;28;20172;-86
2022/09/19 02:22:31;;;;;;;0.50;0.50;;;9.30;99.90;;;;;;4979007;28;20190;-86
2022/09/19 02:25:12;;;;;;;0.67;0.60;;;9.20;99.90;;;;;;5030673;28;20202;-86
2022/09/19 02:27:50;;;;;;;0.63;0.63;;;9.00;99.90;;;;;;4981955;28;20185;-86
2022/09/19 02:30:20;;;;;;;0.60;0.60;;;9.00;99.90;;;;;;4996758;28;20185;-86
2022/09/19 02:32:49;;;;;;;1.30;0.80;;;8.90;99.90;;;;;;4993498;28;20274;-86
2022/09/19 02:35:34;;;;;;;0.80;0.80;;;8.80;99.90;;;;;;5010747;28;20222;-86
2022/09/19 02:38:36;;;;;;;2.83;0.73;;;8.80;99.90;;;;;;4997010;28;20209;-86
2022/09/19 02:41:49;;;;;;;0.60;0.60;;;8.80;99.90;;;;;;4968734;28;20182;-86
2022/09/19 02:44:33;;;;;;;0.70;0.70;;;8.70;99.90;;;;;;4987320;28;20283;-86
2022/09/19 02:47:02;;;;;;;1.00;0.70;;;8.70;99.90;;;;;;4984138;28;20202;-86
2022/09/19 02:49:49;;;;;;;0.70;0.70;;;8.70;99.90;;;;;;4997578;28;20183;-86
2022/09/19 02:52:20;;;;;;;0.80;0.80;;;8.80;99.90;;;;;;4994796;28;20193;-86
2022/09/19 02:54:54;;;;;;;2.20;0.80;;;8.70;99.90;;;;;;4996674;28;20206;-86
2022/09/19 02:57:24;;;;;;;0.90;0.80;;;8.70;99.90;;;;;;4995835;28;20179;-86
2022/09/19 02:59:58;;;;;;;0.80;0.80;;;8.70;99.90;;;;;;4989122;28;20217;-86
2022/09/19 03:02:56;;;;;;;1.17;0.80;;;8.70;99.90;;;;;;4993401;28;20198;-86
2022/09/19 03:05:32;;;;;;;1.00;0.83;;;8.60;99.90;;;;;;4990320;28;20209;-86
2022/09/19 03:08:03;;;;;;;0.80;0.80;;;8.50;99.90;;;;;;4980116;28;20179;-86
2022/09/19 03:10:36;;;;;;;0.80;0.80;;;8.50;99.90;;;;;;4995613;28;20266;-86
2022/09/19 03:13:24;;;;;;;1.07;0.83;;;8.60;99.90;;;;;;5001087;28;20207;-86
2022/09/19 03:15:58;;;;;;;1.10;0.93;;;8.50;99.90;;;;;;5009074;28;20257;-86
2022/09/19 03:18:34;;;;;;;1.23;0.90;;;8.50;99.90;;;;;;4991575;28;20182;-86
2022/09/19 03:21:03;;;;;;;1.77;0.90;;;8.50;99.90;;;;;;5012164;28;20183;-86
2022/09/19 03:23:38;;;;;;;1.77;1.00;;;8.50;99.90;;;;;;4995647;28;20190;-86
2022/09/19 03:26:08;;;;;;;0.90;0.90;;;8.40;99.90;;;;;;4996429;28;20202;-86
2022/09/19 03:28:34;;;;;;;1.30;1.07;;;8.40;99.90;;;;;;4995518;28;20190;-86
2022/09/19 03:31:01;;;;;;;0.97;0.80;;;8.40;99.90;;;;;;4993283;28;20597;-86
2022/09/19 03:33:27;;;;;;;0.83;0.80;;;8.40;99.90;;;;;;5011743;28;20209;-86
2022/09/19 03:35:57;;;;;;;0.50;0.50;;;8.50;99.90;;;;;;5003848;28;20190;-86
2022/09/19 03:38:23;;;;;;;0.80;0.80;;;8.50;99.90;;;;;;4996200;28;20250;-87
2022/09/19 03:40:51;;;;;;;2.00;0.83;;;8.50;99.90;;;;;;4992339;28;20192;-87
2022/09/19 03:43:17;;;;;;;1.80;0.80;;;8.40;99.90;;;;;;4995090;28;20232;-87
2022/09/19 03:45:43;;;;;;;1.70;0.83;;;8.50;99.90;;;;;;4994491;28;20254;-87
2022/09/19 03:48:09;;;;;;;2.07;0.83;;;8.40;99.90;;;;;;4993326;28;20183;-87
2022/09/19 03:50:35;;;;;;;1.23;1.07;;;8.40;99.90;;;;;;4993403;28;20183;-87
2022/09/19 03:53:09;;;;;;;1.07;0.67;;;8.40;99.90;;;;;;4978101;28;20217;-87
2022/09/19 03:55:41;;;;;;;1.20;0.70;;;8.40;99.90;;;;;;4995653;28;20281;-87
2022/09/19 03:58:13;;;;;;;2.30;0.80;;;8.40;99.90;;;;;;4987254;28;20198;-87
2022/09/19 04:00:40;;;;;;;3.43;1.00;;;8.40;99.90;;;;;;5011003;28;20176;-87
2022/09/19 04:03:08;;;;;;;2.30;0.93;;;8.30;99.90;;;;;;5000728;28;20181;-87
2022/09/19 04:05:34;;;;;;;1.47;0.90;;;8.30;99.90;;;;;;5010737;28;20202;-87
2022/09/19 04:08:01;;;;;;;0.87;0.70;;;8.20;99.90;;;;;;5007816;28;20194;-87
2022/09/19 04:10:27;;;;;;;1.57;0.90;;;8.20;99.90;;;;;;5022194;28;20273;-87
2022/09/19 04:12:56;;;;;;;1.63;0.87;;;8.20;99.90;;;;;;5019262;28;20174;-88
2022/09/19 04:15:22;;;;;;;3.27;0.90;;;8.10;99.90;;;;;;5012170;28;20203;-87
2022/09/19 04:17:48;;;;;;;2.57;1.03;;;8.10;99.90;;;;;;4999967;28;20187;-86
2022/09/19 04:20:18;;;;;;;0.70;0.70;;;8.10;99.90;;;;;;4990106;28;20678;-87
2022/09/19 04:23:02;;;;;;;2.10;1.33;;;8.10;99.90;;;;;;5001460;28;20178;-86
2022/09/19 04:25:58;;;;;;;3.10;2.50;;;8.10;99.90;;;;;;5001174;28;20326;-86
2022/09/19 04:28:46;;;;;;;2.33;1.17;;;8.10;99.90;;;;;;5000946;28;20187;-86
2022/09/19 04:31:12;;;;;;;1.70;1.00;;;8.00;99.90;;;;;;5015493;28;20182;-86
2022/09/19 04:33:40;;;;;;;1.57;1.10;;;8.00;99.90;;;;;;5008849;28;20202;-86
2022/09/19 04:36:08;;;;;;;1.70;1.07;;;8.00;99.90;;;;;;5018115;28;20260;-86
2022/09/19 04:38:36;;;;;;;2.93;1.07;;;7.90;99.90;;;;;;5001452;28;20178;-86
2022/09/19 04:41:06;;;;;;;6.10;2.03;;;8.00;99.90;;;;;;5002374;28;20246;-86
2022/09/19 04:43:32;;;;;;;2.97;1.70;;;8.00;99.90;;;;;;5001335;28;20213;-86
2022/09/19 04:46:09;;;;;;;2.90;1.50;;;8.00;99.90;;;;;;5010761;28;20265;-86
2022/09/19 04:48:46;;;;;;;2.17;1.40;;;7.90;99.90;;;;;;5002779;28;20269;-86
2022/09/19 04:51:13;;;;;;;2.33;1.30;;;7.90;99.90;;;;;;5001594;28;20185;-86
2022/09/19 04:53:39;;;;;;;4.50;1.60;;;7.90;99.90;;;;;;5001075;28;20301;-86
2022/09/19 04:56:06;;;;;;;2.90;1.47;;;7.90;99.90;;;;;;5001592;28;20276;-86
2022/09/19 04:58:34;;;;;;;10.07;1.70;;;7.90;99.90;;;;;;5001046;28;20182;-86
2022/09/19 05:01:02;;;;;;;1.93;1.27;;;7.90;99.90;;;;;;4999796;28;20657;-86
2022/09/19 05:03:30;;;;;;;3.97;1.80;;;7.90;99.90;;;;;;5001527;28;20187;-86
2022/09/19 05:05:58;;;;;;;2.37;1.90;;;7.90;99.90;;;;;;4981686;28;20233;-86
2022/09/19 05:08:32;;;;;;;1.70;1.30;;;7.90;99.90;;;;;;4997679;28;20171;-86
2022/09/19 05:11:14;;;;;;;5.07;1.30;;;7.90;99.90;;;;;;4983609;28;20258;-86
2022/09/19 05:13:40;;;;;;;4.93;1.80;;;7.90;99.90;;;;;;4981269;28;20293;-86
2022/09/19 05:16:14;;;;;;;2.90;1.40;;;7.80;99.90;;;;;;4984789;28;20201;-86
2022/09/19 05:18:45;;;;;;;3.27;1.40;;;7.80;99.90;;;;;;5000439;28;20261;-86
2022/09/19 05:21:14;;;;;;;4.10;1.50;;;7.90;99.90;;;;;;4992012;28;20175;-86
2022/09/19 05:23:48;;;;;;;3.87;1.57;;;7.90;99.90;;;;;;4984516;28;20194;-88
2022/09/19 05:26:18;;;;;;;2.13;1.27;;;8.00;99.90;;;;;;4994384;28;20194;-86
2022/09/19 05:28:49;;;;;;;3.43;1.23;;;8.10;99.90;;;;;;4998071;28;20249;-88
2022/09/19 05:31:19;;;;;;;2.97;1.20;;;8.10;99.90;;;;;;5000207;28;20179;-86
2022/09/19 05:33:57;;;;;;;2.40;1.20;;;8.10;99.90;;;;;;5009133;28;20205;-86
2022/09/19 05:36:27;;;;;;;6.23;1.50;;;8.10;99.90;;;;;;4992551;28;20199;-87
2022/09/19 05:39:16;;;;;;;5.03;1.80;;;8.20;99.90;;;;;;4999900;28;20175;-86
2022/09/19 05:42:11;;;;;;;3.17;1.43;;;8.30;99.90;;;;;;5008907;28;20240;-88
2022/09/19 05:44:37;;;;;;;4.77;1.40;;;8.30;99.90;;;;;;4991576;28;20203;-87
2022/09/19 05:47:04;;;;;;;6.23;1.57;;;8.40;99.90;;;;;;5014652;28;20251;-87
2022/09/19 05:49:30;;;;;;;8.00;3.47;;;8.40;99.90;;;;;;5011940;28;20532;-87
2022/09/19 05:53:51;;;;;;;6.70;3.30;;;8.50;99.90;;;;;;5000538;28;20230;-87
2022/09/19 05:54:43;;;;;;;5.77;2.57;;;8.50;99.90;;;;;;5010807;28;20219;-87
2022/09/19 05:57:29;;;;;;;8.53;4.40;;;8.50;99.90;;;;;;4999565;28;20190;-86
2022/09/19 05:59:56;;;;;;;7.70;4.10;;;8.50;99.90;;;;;;4997495;28;20201;-87
2022/09/19 06:02:22;;;;;;;9.00;2.67;;;8.60;99.90;;;;;;4995704;28;20179;-87
2022/09/19 06:04:55;;;;;;;4.13;1.80;;;8.60;99.90;;;;;;4981238;28;20215;-87
2022/09/19 06:07:23;;;;;;;3.37;1.80;;;8.70;99.90;;;;;;4994104;28;20178;-87
2022/09/19 06:09:52;;;;;;;4.70;1.43;;;8.70;99.90;;;;;;4996175;28;20202;-87
2022/09/19 06:12:19;;;;;;;2.40;1.40;;;8.70;99.90;;;;;;4993620;28;20175;-87
2022/09/19 06:14:45;;;;;;;3.40;1.20;;;8.70;99.90;;;;;;5012516;28;20218;-87
2022/09/19 06:17:15;;;;;;;1.93;1.07;;;8.70;99.90;;;;;;5015318;28;20270;-86
2022/09/19 06:20:08;;;;;;;3.07;1.20;;;8.80;99.90;;;;;;5003470;28;20177;-86
2022/09/19 06:22:47;;;;;;;4.97;2.30;;;8.80;99.90;;;;;;4985478;28;20163;-86
2022/09/19 06:25:19;;;;;;;4.53;1.37;;;8.90;99.90;;;;;;5012707;28;20220;-86
2022/09/19 06:27:53;;;;;;;4.17;1.50;;;8.90;99.90;;;;;;5003273;28;20177;-86
2022/09/19 06:30:19;;;;;;;7.13;1.60;;;8.90;99.90;;;;;;5004362;28;20198;-87
2022/09/19 06:33:06;;;;;;;2.50;1.53;;;8.90;99.90;;;;;;5009667;28;20624;-86
2022/09/19 06:35:40;;;;;;;3.67;1.50;;;9.00;99.90;;;;;;5010503;28;20198;-86
2022/09/19 06:38:07;;;;;;;7.53;1.80;;;9.00;99.90;;;;;;4996689;28;20290;-86
2022/09/19 06:40:38;;;;;;;4.23;2.27;;;9.00;99.90;;;;;;4985905;28;20175;-87
2022/09/19 06:43:26;;;;;;;4.33;1.30;;;9.10;99.90;;;;;;5013457;28;20194;-87
2022/09/19 06:46:12;;;;;;;2.90;1.50;;;9.20;99.90;;;;;;4995550;28;20365;-87
2022/09/19 06:48:58;;;;;;;4.67;1.70;;;9.20;99.90;;;;;;5013850;28;20209;-87
2022/09/19 06:51:42;;;;;;;7.20;2.00;;;9.30;99.90;;;;;;5002522;28;20297;-87
2022/09/19 06:54:13;;;;;;;5.03;1.37;;;9.40;99.90;;;;;;4998227;28;20238;-87
2022/09/19 06:56:44;;;;;;;4.13;1.40;;;9.50;99.90;;;;;;5011554;28;20179;-87
2022/09/19 06:59:13;;;;;;;3.60;1.73;;;9.50;99.90;;;;;;4989338;28;20237;-87
2022/09/19 07:01:39;;;;;;;7.33;1.60;;;9.50;99.90;;;;;;5011991;28;20181;-86
2022/09/19 07:04:06;;;;;;;4.27;1.60;;;9.60;99.90;;;;;;5005766;28;20187;-87
2022/09/19 07:06:56;;;;;;;6.47;1.60;;;9.70;99.90;;;;;;5013448;28;20187;-88
2022/09/19 07:09:24;;;;;;;2.80;1.60;;;9.80;99.90;;;;;;5005950;28;20210;-86
2022/09/19 07:11:56;;;;;;;4.20;1.60;;;9.90;99.90;;;;;;5012013;28;20171;-87
2022/09/19 07:14:33;;;;;;;4.17;1.50;;;10.00;99.90;;;;;;5003058;28;20237;-87
2022/09/19 07:17:05;;;;;;;5.17;1.60;;;10.10;99.90;;;;;;5009317;28;20181;-87
2022/09/19 07:19:32;;;;;;;5.80;1.57;;;10.20;99.90;;;;;;5003706;28;20183;-87
2022/09/19 07:22:29;;;;;;;5.83;1.73;;;10.30;99.90;;;;;;5020559;28;20238;-88
2022/09/19 07:25:21;;;;;;;8.53;1.50;;;10.50;99.90;;;;;;5021684;28;20194;-87
2022/09/19 07:27:57;;;;;;;7.33;1.73;;;10.60;99.90;;;;;;4998919;28;20262;-87
2022/09/19 07:30:24;;;;;;;6.60;1.57;;;10.70;99.90;;;;;;4982082;28;20175;-87
2022/09/19 07:32:53;;;;;;;5.10;1.73;;;10.80;99.90;;;;;;5009004;28;20266;-87
2022/09/19 07:35:19;;;;;;;3.27;1.47;;;10.90;99.90;;;;;;5009272;28;20196;-89
2022/09/19 07:37:53;;;;;;;6.93;1.97;;;11.00;99.90;;;;;;5000946;28;20176;-89
2022/09/19 07:40:48;;;;;;;3.57;1.43;;;11.10;99.90;;;;;;5028146;28;20568;-88
2022/09/19 07:43:30;;;;;;;7.40;1.50;;;11.20;99.90;;;;;;5005144;28;20174;-87
2022/09/19 07:46:17;;;;;;;3.37;1.30;;;11.30;99.90;;;;;;4998121;28;20221;-87
2022/09/19 07:49:03;;;;;;;7.83;1.60;;;11.30;99.90;;;;;;5011661;28;20181;-87
2022/09/19 07:51:55;;;;;;;8.07;2.03;;;11.40;99.90;;;;;;5009946;28;20171;-87
2022/09/19 07:54:22;;;;;;;6.37;1.70;;;11.60;99.90;;;;;;5012022;28;20199;-87
2022/09/19 07:57:05;;;;;;;8.47;1.90;;;11.80;99.90;;;;;;5022114;28;20250;-87
2022/09/19 07:59:32;;;;;;;5.73;1.80;;;11.80;99.90;;;;;;4993694;28;20169;-87
2022/09/19 08:02:00;;;;;;;7.50;2.53;;;11.90;99.90;;;;;;4997655;28;20240;-87
2022/09/19 08:04:39;;;;;;;7.30;1.90;;;12.00;99.90;;;;;;5022685;28;20206;-87
2022/09/19 08:07:06;;;;;;;6.27;1.40;;;12.00;99.90;;;;;;5006362;28;20188;-87
2022/09/19 08:09:34;;;;;;;5.77;1.70;;;12.10;99.90;;;;;;5007096;28;20227;-87
2022/09/19 08:12:05;;;;;;;5.83;1.80;;;12.20;99.90;;;;;;5021865;28;20185;-86
2022/09/19 08:14:35;;;;;;;6.50;1.60;;;12.20;99.90;;;;;;5005101;28;20300;-87
2022/09/19 08:17:02;;;;;;;3.53;1.47;;;12.20;99.90;;;;;;5014183;28;20196;-87
2022/09/19 08:19:31;;;;;;;3.70;1.17;;;12.20;99.90;;;;;;5016295;28;20179;-87
2022/09/19 08:21:58;;;;;;;6.63;1.63;;;12.30;99.90;;;;;;5006074;28;20233;-87
2022/09/19 08:24:45;;;;;;;5.03;2.10;;;12.50;99.90;;;;;;5005192;28;20209;-87
2022/09/19 08:27:14;;;;;;;5.93;2.07;;;12.60;99.90;;;;;;5015065;28;20186;-87
2022/09/19 08:29:43;;;;;;;4.43;1.50;;;12.60;99.90;;;;;;5001578;28;20184;-87
2022/09/19 08:32:14;;;;;;;8.00;2.53;;;12.70;99.90;;;;;;5004764;28;20180;-87
2022/09/19 08:34:52;;;;;;;4.87;1.60;;;12.70;99.90;;;;;;5018701;28;20249;-87
2022/09/19 08:37:20;;;;;;;6.73;1.50;;;12.70;99.90;;;;;;5019183;28;20237;-87
2022/09/19 08:43:00;;;;;;;4.93;2.30;;;12.60;99.90;;;;;;4999621;28;20175;-87
2022/09/19 08:46:06;;;;;;;3.30;1.50;;;12.70;99.90;;;;;;4997250;28;20218;-87
2022/09/19 08:48:38;;;;;;;6.27;1.57;;;12.70;99.90;;;;;;4999143;28;20239;-87
2022/09/19 08:51:14;;;;;;;5.70;1.50;;;12.70;99.90;;;;;;5015687;28;20642;-88
2022/09/19 08:53:47;;;;;;;3.53;1.23;;;12.80;99.90;;;;;;4999799;28;20693;-87
2022/09/19 08:56:13;;;;;;;5.33;1.77;;;12.90;99.90;;;;;;5000075;28;20213;-87
2022/09/19 08:58:46;;;;;;;4.90;1.70;;;12.80;99.90;;;;;;4999351;28;20180;-88
2022/09/19 09:01:35;;;;;;;6.03;1.30;;;12.90;99.90;;;;;;5019270;28;20234;-87
2022/09/19 09:04:35;;;;;;;7.67;1.90;;;12.90;99.90;;;;;;5009795;28;20235;-86
2022/09/19 09:07:15;;;;;;;3.87;1.53;;;12.80;99.90;;;;;;5000055;28;20189;-87
2022/09/19 09:10:10;;;;;;;4.43;1.47;;;12.80;99.90;;;;;;5022890;28;20190;-88
2022/09/19 09:13:09;;;;;;;2.80;1.20;;;12.90;99.90;;;;;;5000214;28;20246;-87
2022/09/19 09:15:59;;;;;;;5.60;1.10;;;12.90;99.90;;;;;;5014890;28;20217;-87
2022/09/19 09:18:49;;;;;;;5.83;1.30;;;13.00;99.90;;;;;;5012017;28;20193;-87
2022/09/19 09:21:48;;;;;;;4.50;1.33;;;13.00;99.90;;;;;;5018221;28;20234;-87
2022/09/19 09:24:28;;;;;;;4.53;1.40;;;13.10;99.90;;;;;;5018050;28;20189;-87
2022/09/19 09:27:18;;;;;;;2.80;1.07;;;13.20;99.90;;;;;;5037066;28;20176;-87
2022/09/19 09:29:53;;;;;;;6.50;1.33;;;13.30;99.90;;;;;;5018313;28;20177;-87
2022/09/19 09:32:30;;;;;;;3.47;1.30;;;13.50;99.90;;;;;;5018691;28;20177;-88
2022/09/19 09:35:03;;;;;;;3.23;1.10;;;13.60;99.90;;;;;;5018101;28;20208;-87
2022/09/19 09:37:53;;;;;;;3.40;0.90;;;13.70;99.90;;;;;;5018159;28;20181;-87
2022/09/19 09:43:23;;;;;;;3.60;1.10;;;13.80;99.90;;;;;;5034259;28;20212;-87
2022/09/19 09:45:57;;;;;;;3.60;1.20;;;13.70;99.90;;;;;;5010274;28;20213;-88
2022/09/19 09:48:39;;;;;;;5.63;1.10;;;13.70;99.90;;;;;;5000875;28;20179;-88
2022/09/19 09:51:39;;;;;;;3.60;1.47;;;13.70;99.90;;;;;;4992121;28;20328;-87
2022/09/19 09:57:31;;;;;;;3.70;1.20;;;13.80;99.90;;;;;;5008274;28;20176;-87
2022/09/19 10:06:24;;;;;;;3.13;1.20;;;14.10;99.90;;;;;;5014952;28;20675;-87
2022/09/19 10:09:14;;;;;;;4.37;1.30;;;14.30;99.90;;;;;;4996108;28;20313;-87
2022/09/19 10:12:03;;;;;;;4.17;1.60;;;14.40;99.90;;;;;;5017788;28;20179;-87
2022/09/19 10:14:31;;;;;;;5.33;1.60;;;14.40;99.90;;;;;;4999951;28;20216;-88
2022/09/19 10:17:19;;;;;;;3.87;1.30;;;14.40;99.90;;;;;;5001374;28;20182;-87
2022/09/19 10:19:52;;;;;;;3.33;1.20;;;14.30;99.90;;;;;;5004873;28;20174;-88
2022/09/19 10:22:22;;;;;;;4.53;2.13;;;14.40;99.90;;;;;;5012858;28;20181;-87
2022/09/19 10:25:13;;;;;;;3.57;1.30;;;14.30;99.90;;;;;;4995410;28;20211;-88
2022/09/19 10:27:45;;;;;;;3.47;1.27;;;14.20;99.90;;;;;;5018666;28;20178;-87
2022/09/19 10:30:33;;;;;;;3.77;1.00;;;14.20;99.90;;;;;;5003551;28;20275;-87
2022/09/19 10:33:38;;;;;;;2.47;0.90;;;14.30;99.90;;;;;;5000102;28;20178;-87
2022/09/19 10:36:22;;;;;;;4.53;1.13;;;14.50;99.90;;;;;;5003521;28;20209;-87
2022/09/19 10:38:58;;;;;;;4.77;1.17;;;14.60;99.90;;;;;;4987910;28;20252;-88
2022/09/19 10:41:30;;;;;;;4.37;1.40;;;14.70;99.90;;;;;;5003736;28;20201;-88
2022/09/19 10:43:58;;;;;;;2.70;0.97;;;14.70;99.90;;;;;;4997146;28;20309;-88
2022/09/19 10:46:36;;;;;;;2.90;1.10;;;14.80;99.90;;;;;;4992207;28;20571;-88
2022/09/19 10:49:48;;;;;;;2.20;1.00;;;14.90;99.90;;;;;;5009273;28;20210;-88
2022/09/19 10:52:24;;;;;;;2.97;1.17;;;14.80;99.90;;;;;;4998342;28;20191;-88
2022/09/19 10:55:02;;;;;;;2.70;1.00;;;14.90;99.90;;;;;;5016628;28;20302;-88
2022/09/19 10:57:44;;;;;;;2.90;1.20;;;14.80;99.90;;;;;;4997457;28;20312;-88
2022/09/19 11:00:25;;;;;;;4.27;1.10;;;14.80;99.90;;;;;;4999603;28;20170;-88
2022/09/19 11:03:05;;;;;;;4.13;1.20;;;14.80;99.90;;;;;;4997542;28;20248;-88
2022/09/19 11:05:34;;;;;;;3.87;1.50;;;14.70;99.90;;;;;;4979626;28;20198;-88
2022/09/19 11:08:02;;;;;;;3.03;1.10;;;14.80;99.90;;;;;;4995831;28;20181;-88
2022/09/19 11:10:40;;;;;;;3.10;0.93;;;14.80;99.90;;;;;;4993644;28;20181;-88
2022/09/19 11:13:22;;;;;;;2.10;1.00;;;14.80;99.90;;;;;;4995587;28;20209;-87
2022/09/19 11:16:05;;;;;;;2.20;0.80;;;14.80;99.90;;;;;;4998529;28;20199;-87
2022/09/19 11:18:40;;;;;;;2.87;0.97;;;14.90;99.90;;;;;;5028205;28;20182;-87
2022/09/19 11:21:28;;;;;;;1.80;0.80;;;15.10;99.90;;;;;;4988135;28;20169;-87
2022/09/19 11:24:32;;;;;;;3.03;0.87;;;15.10;99.90;;;;;;5003707;28;20265;-88
2022/09/19 11:27:23;;;;;;;4.07;1.00;;;15.20;99.90;;;;;;5002579;28;20192;-88
2022/09/19 11:30:12;;;;;;;4.00;0.70;;;15.20;99.90;;;;;;5009115;28;20183;-88
2022/09/19 11:33:16;;;;;;;2.97;0.90;;;15.10;99.90;;;;;;4994493;28;20187;-87
2022/09/19 11:36:24;;;;;;;2.23;1.00;;;14.90;99.90;;;;;;5007801;28;20198;-87
2022/09/19 11:39:04;;;;;;;1.30;1.00;;;14.80;99.90;;;;;;5006602;28;20184;-87
2022/09/19 11:42:10;;;;;;;4.80;1.60;;;14.70;99.90;;;;;;4990696;28;20216;-88
2022/09/19 11:44:55;;;;;;;2.40;1.00;;;14.70;99.90;;;;;;4997026;28;20252;-88
2022/09/19 11:48:02;;;;;;;6.17;1.50;;;14.80;99.90;;;;;;4996452;28;20179;-88
2022/09/19 11:50:46;;;;;;;2.83;0.90;;;14.90;99.90;;;;;;5018721;28;20178;-87
2022/09/19 11:53:44;;;;;;;2.90;1.20;;;14.90;99.90;;;;;;5017499;28;20204;-88
2022/09/19 11:56:18;;;;;;;2.83;1.03;;;15.00;99.90;;;;;;4993317;28;20233;-88
2022/09/19 11:58:54;;;;;;;4.37;1.17;;;15.10;99.90;;;;;;4998207;28;20721;-87
2022/09/19 12:01:59;;;;;;;2.57;1.00;;;15.10;99.90;;;;;;4991283;28;20178;-83
2022/09/19 12:04:49;;;;;;;2.47;1.00;;;15.10;99.90;;;;;;4981930;28;20262;-87
2022/09/19 12:07:26;;;;;;;1.53;0.60;;;15.10;99.90;;;;;;4994479;28;20176;-88
2022/09/19 12:10:17;;;;;;;2.60;0.87;;;15.40;99.90;;;;;;5001769;28;20189;-88
2022/09/19 12:12:53;;;;;;;2.40;0.80;;;15.50;99.90;;;;;;5009484;28;20211;-87
2022/09/19 12:15:39;;;;;;;2.07;0.90;;;15.50;99.90;;;;;;5002847;28;20230;-87
2022/09/19 12:18:57;;;;;;;3.00;0.80;;;15.50;99.90;;;;;;5002342;28;20205;-88
2022/09/19 12:21:57;;;;;;;1.33;0.70;;;15.60;99.90;;;;;;5001173;28;20197;-87
2022/09/19 12:24:55;;;;;;;1.30;0.90;;;15.60;99.90;;;;;;4987434;28;20213;-87
2022/09/19 12:27:27;;;;;;;1.57;0.80;;;15.60;99.90;;;;;;4996998;28;20178;-88
2022/09/19 12:30:19;;;;;;;1.43;0.80;;;15.70;99.90;;;;;;5021378;28;20170;-88
2022/09/19 12:33:08;;;;;;;4.07;0.93;;;15.70;99.90;;;;;;5021585;28;20281;-88
2022/09/19 12:35:38;;;;;;;3.23;0.70;;;15.70;99.90;;;;;;5021576;28;20240;-88
2022/09/19 12:38:35;;;;;;;1.23;0.60;;;15.70;99.90;;;;;;5003243;28;20182;-88
2022/09/19 12:41:32;;;;;;;1.33;0.70;;;15.60;99.90;;;;;;5000038;28;20210;-88
2022/09/19 12:44:10;;;;;;;1.47;0.80;;;15.60;99.90;;;;;;4998317;28;20175;-88
2022/09/19 12:46:57;;;;;;;0.83;0.60;;;15.60;99.90;;;;;;4997022;28;20191;-88
2022/09/19 12:50:08;;;;;;;2.10;0.83;;;15.80;99.90;;;;;;4983661;28;20178;-88
2022/09/19 12:52:49;;;;;;;2.73;0.70;;;15.90;99.90;;;;;;4987302;28;20183;-88
2022/09/19 12:55:27;;;;;;;2.33;0.70;;;16.00;99.90;;;;;;4993428;28;20217;-87
2022/09/19 12:57:59;;;;;;;1.63;0.83;;;16.00;99.90;;;;;;4991149;28;20186;-87
2022/09/19 13:00:25;;;;;;;1.33;0.70;;;16.10;99.90;;;;;;4979379;28;20190;-88
2022/09/19 13:03:04;;;;;;;2.10;0.80;;;16.20;99.90;;;;;;4996294;28;20175;-87
2022/09/19 13:05:40;;;;;;;1.63;0.87;;;16.20;99.90;;;;;;4990224;28;20191;-88
2022/09/19 13:08:34;;;;;;;1.10;0.67;;;16.20;99.90;;;;;;4983331;28;20179;-88
2022/09/19 13:11:24;;;;;;;0.83;0.80;;;16.20;99.90;;;;;;4995456;28;20192;-88
2022/09/19 13:14:00;;;;;;;1.63;0.80;;;16.10;99.90;;;;;;4999529;28;20213;-88
2022/09/19 13:16:30;;;;;;;2.20;0.83;;;16.10;99.90;;;;;;4985104;28;20206;-88
2022/09/19 13:24:56;;;;;;;1.03;0.50;;;16.00;99.90;;;;;;5008604;28;20206;-88
2022/09/19 13:27:25;;;;;;;1.60;0.70;;;16.20;99.90;;;;;;4994690;28;20175;-88
2022/09/19 13:29:53;;;;;;;1.27;0.70;;;16.60;99.90;;;;;;5011379;28;20191;-88
2022/09/19 13:32:34;;;;;;;1.97;0.77;;;16.80;99.90;;;;;;5014624;28;20289;-88
2022/09/19 13:35:22;;;;;;;1.70;0.73;;;17.10;99.90;;;;;;4999933;28;20257;-88
2022/09/19 13:38:22;;;;;;;0.70;0.70;;;17.10;99.90;;;;;;5000358;28;20188;-88
2022/09/19 13:41:06;;;;;;;1.43;0.73;;;16.80;99.90;;;;;;5021993;28;20273;-88
2022/09/19 13:44:06;;;;;;;1.47;0.80;;;16.70;99.90;;;;;;5007414;28;20183;-88
2022/09/19 13:46:41;;;;;;;1.57;0.60;;;16.60;99.90;;;;;;4980121;28;20270;-88
2022/09/19 13:49:11;;;;;;;3.70;0.80;;;16.50;99.90;;;;;;4988616;28;20182;-88
2022/09/19 13:51:44;;;;;;;4.13;0.83;;;16.40;99.90;;;;;;4997266;28;20218;-88
2022/09/19 13:54:20;;;;;;;2.10;0.80;;;16.60;99.90;;;;;;4994567;28;20215;-88
2022/09/19 13:56:51;;;;;;;3.10;1.00;;;16.50;99.90;;;;;;4997429;28;20177;-88
2022/09/19 13:59:24;;;;;;;1.57;0.70;;;16.50;99.90;;;;;;4997678;28;20189;-88
2022/09/19 14:02:00;;;;;;;2.47;0.90;;;16.50;99.90;;;;;;4997055;28;20182;-88
2022/09/19 14:04:54;;;;;;;2.37;0.70;;;16.60;99.90;;;;;;4997374;28;20217;-88
2022/09/19 14:07:25;;;;;;;1.37;0.67;;;16.70;99.90;;;;;;5016265;28;20238;-87
2022/09/19 14:09:55;;;;;;;2.10;0.90;;;16.80;99.90;;;;;;5005794;28;20174;-87